• Join FlightAware (Why Join?)
  • Login
  • US Flag 
Gobble Gobble! 
06:22PM EST


 

Airport Tracker/Info


-or-


 

Live Flight TrackerFlight Track Log ✈ AWI3722 ✈ 14-Apr-2013 ✈ KPWM - KPHL

Flight Track Log - Related Links

Times and Time Zones

All times are in EDT time to prevent confusion due to time zone crossing. See the AWI3722 flight status page for this flight to view local times or setup timezone preferences in your user account.

Time Position Orientation Groundspeed Altitude Reporting Facility
EDT Latitude Longitude Course Direction KTS MPH feet Rate Location/Type
03:42PM 43.6439 -70.4403 267° West 200 230 4,300  Level Boston Center
03:43PM 43.5428 -70.1509 226° Southwest  Level FlightAware Approximate
03:43PM 43.6114 -70.4958 231° Southwest 204 235 5,500  Level Boston Center
03:44PM 43.4754 -70.2471 226° Southwest  Level FlightAware Approximate
03:44PM 43.5289 -70.5414 202° Southwest 244 281 8,500  Level Boston Center
03:45PM 43.4155 -70.3516 226° Southwest  Level FlightAware Approximate
03:45PM 43.4317 -70.5903 200° South 284 327 10,600  Level Boston Center
03:46PM 43.3475 -70.4469 226° Southwest  Level FlightAware Approximate
03:46PM 43.3572 -70.6267 200° South 316 364 12,100  Level Boston Center
03:47PM 43.2414 -70.6817 199° South 326 375 14,000 1,920 Climbing Boston Center
03:48PM 43.1544 -70.7294 202° Southwest 332 382 16,000 1,680 Climbing Boston Center
03:49PM 43.0700 -70.7889 207° Southwest 337 388 17,400 1,440 Climbing Boston Center
03:50PM 42.9833 -70.8508 208° Southwest 347 399 18,900 1,200 Climbing Boston Center
03:51PM 42.9233 -70.8892 205° Southwest 347 399 19,900 960 Climbing Boston Center
03:52PM 42.8139 -70.9628 206° Southwest 347 399 20,900 1,020 Climbing Boston Center
03:53PM 42.7186 -71.0131 201° Southwest 364 419 22,000 960 Climbing Boston Center
03:54PM 42.6172 -71.0633 200° South 374 430 22,900 960 Climbing Boston Center
03:55PM 42.5197 -71.1133 201° Southwest 386 444 23,900 840 Climbing Boston Center
03:56PM 42.4203 -71.1689 202° Southwest 391 450 24,600 720 Climbing Boston Center
03:57PM 42.3381 -71.2519 217° Southwest 379 436 25,400 660 Climbing Boston Center
03:58PM 42.2533 -71.3322 215° Southwest 379 436 26,000 600 Climbing Boston Center
03:59PM 42.1686 -71.4178 217° Southwest 379 436 26,700 540 Climbing Boston Center
04:00PM 42.0819 -71.5031 216° Southwest 385 443 27,200 480 Climbing Boston Center
04:01PM 41.9908 -71.5853 214° Southwest 385 443 27,700 360 Climbing Boston Center
04:02PM 41.9039 -71.6731 217° Southwest 391 450 28,000 120 Climbing Boston Center
04:03PM 41.8147 -71.7578 215° Southwest 396 456 28,000  Level Boston Center
04:04PM 41.7256 -71.8447 216° Southwest 403 464 28,000  Level Boston Center
04:05PM 41.6364 -71.9289 215° Southwest 403 464 28,000  Level Boston Center
04:06PM 41.5472 -72.0131 215° Southwest 403 464 28,000  Level Boston Center
04:07PM 41.4578 -72.0994 216° Southwest 403 464 28,000  Level Boston Center
04:08PM 41.3686 -72.1856 216° Southwest 403 464 28,000  Level Boston Center
04:09PM 41.2833 -72.2689 216° Southwest 403 464 28,000  Level Boston Center
04:10PM 41.1936 -72.3519 215° Southwest 403 464 28,000  Level Boston Center
04:11PM 41.1061 -72.4372 216° Southwest 403 464 28,000  Level Boston Center
04:12PM 41.0167 -72.5197 215° Southwest 403 464 28,000 -600 Level Boston Center
04:13PM 40.9269 -72.6050 216° Southwest 403 464 26,900 -1,200 Descending Boston Center
04:14PM 40.8350 -72.6897 215° Southwest 403 464 25,700 -1,200 Descending Boston Center
04:15PM 40.7536 -72.7633 214° Southwest 389 448 24,500 -900 Descending Boston Center
04:16PM 40.6889 -72.8206 214° Southwest 374 430 24,000 -1,080 Descending Boston Center
04:18PM 40.4928 -73.0061 216° Southwest 345 397 21,200 -1,320 Descending New York Center
04:19PM 40.4164 -73.0772 210° Southwest 351 404 20,000 -600 Descending New York Center
04:20PM 40.4035 -73.0683 210° Southwest  Level FlightAware Approximate
04:21PM 40.3419 -73.1456 215° Southwest 343 395 20,000  Level New York Center
04:21PM 40.2636 -73.2136 214° Southwest 336 387 20,000  Level New York Center
04:22PM 40.1869 -73.2869 216° Southwest 336 387 20,000  Level New York Center
04:23PM 40.1061 -73.3572 214° Southwest 342 394 20,000  Level New York Center
04:25PM 40.0294 -73.4331 217° Southwest 342 394 20,000  Level New York Center
04:25PM 39.9467 -73.5028 213° Southwest 347 399 20,000  Level New York Center
04:26PM 39.8781 -73.5814 221° Southwest 347 399 20,000  Level New York Center
04:27PM 39.8194 -73.6736 230° Southwest 335 386 20,000  Level New York Center
04:29PM 39.7581 -73.7778 233° Southwest 334 384 20,000 -300 Level Washington Center
04:30PM 39.7050 -73.8544 228° Southwest 312 359 19,400 -1,200 Descending Washington Center
04:31PM 39.6481 -73.9422 230° Southwest 312 359 17,600 -1,800 Descending Washington Center
04:32PM 39.5933 -74.0275 230° Southwest 313 360 15,900 -1,680 Descending FAA TRACON SMA TRACON (SMA)
04:32PM 39.5764 -74.0544 231° Southwest 312 359 15,400 -1,500 Descending FAA TRACON SMA TRACON (SMA)
04:32PM 39.5594 -74.0808 230° Southwest 312 359 14,900 -1,680 Descending FAA TRACON SMA TRACON (SMA)
04:33PM 39.5394 -74.1131 231° Southwest 309 356 14,300 -1,200 Descending FAA TRACON SMA TRACON (SMA)
04:33PM 39.5231 -74.1403 232° Southwest 305 351 14,100 -300 Descending FAA TRACON SMA TRACON (SMA)
04:33PM 39.5075 -74.1667 233° Southwest 303 349 14,100  Level FAA TRACON SMA TRACON (SMA)
04:34PM 39.4886 -74.1989 233° Southwest 296 341 14,100  Level FAA TRACON SMA TRACON (SMA)
04:34PM 39.4736 -74.2242 232° Southwest 293 337 14,100  Level FAA TRACON SMA TRACON (SMA)
04:34PM 39.4594 -74.2481 232° Southwest 292 336 14,100  Level FAA TRACON SMA TRACON (SMA)
04:35PM 39.4400 -74.2811 233° Southwest 289 333 14,100  Level FAA TRACON SMA TRACON (SMA)
04:35PM 39.4250 -74.3067 233° Southwest 287 330 14,100  Level FAA TRACON SMA TRACON (SMA)
04:35PM 39.4067 -74.3367 232° Southwest 289 333 14,100  Level FAA TRACON SMA TRACON (SMA)
04:36PM 39.3911 -74.3639 234° Southwest 290 334 14,100 -540 Level FAA TRACON SMA TRACON (SMA)
04:36PM 39.3761 -74.3889 232° Southwest 288 331 13,800 -1,140 Descending FAA TRACON SMA TRACON (SMA)
04:36PM 39.3617 -74.4125 232° Southwest 278 320 13,400 -1,080 Descending FAA TRACON SMA TRACON (SMA)
04:37PM 39.3450 -74.4403 232° Southwest 266 306 13,100 -600 Descending FAA TRACON SMA TRACON (SMA)
04:37PM 39.3314 -74.4619 231° Southwest 259 298 13,000  Descending FAA TRACON SMA TRACON (SMA)
04:37PM 39.3175 -74.4867 234° Southwest 264 304 13,100 120 Climbing FAA TRACON SMA TRACON (SMA)
04:38PM 39.2997 -74.5161 232° Southwest 267 307 13,100 -480 Level FAA TRACON SMA TRACON (SMA)
04:38PM 39.2917 -74.5447 250° West 273 314 12,800 -1,080 Descending FAA TRACON SMA TRACON (SMA)
04:38PM 39.2892 -74.5717 263° West 246 283 12,400 -1,680 Descending FAA TRACON SMA TRACON (SMA)
04:39PM 39.2861 -74.6081 264° West 259 298 11,700 -1,800 Descending FAA TRACON SMA TRACON (SMA)
04:39PM 39.2850 -74.6347 267° West 246 283 11,200 -1,380 Descending FAA TRACON SMA TRACON (SMA)
04:39PM 39.2831 -74.6636 265° West 248 285 10,800 -1,500 Descending FAA TRACON SMA TRACON (SMA)
04:40PM 39.2947 -74.6931 297° West 236 272 10,200 -1,500 Descending FAA TRACON SMA TRACON (SMA)
04:40PM 39.3106 -74.7089 322° Northwest 244 281 9,800 -1,380 Descending FAA TRACON SMA TRACON (SMA)
04:40PM 39.3258 -74.7269 318° Northwest 244 281 9,300 -1,080 Descending FAA TRACON SMA TRACON (SMA)
04:41PM 39.3450 -74.7481 320° Northwest 240 276 9,100 -300 Descending FAA TRACON SMA TRACON (SMA)
04:41PM 39.3603 -74.7661 318° Northwest 237 273 9,100 -180 Level FAA TRACON SMA TRACON (SMA)
04:41PM 39.3764 -74.7844 319° Northwest 237 273 9,000  Descending FAA TRACON SMA TRACON (SMA)
04:42PM 39.3950 -74.8056 319° Northwest 239 275 9,100 120 Climbing FAA TRACON SMA TRACON (SMA)
04:42PM 39.4106 -74.8231 319° Northwest 240 276 9,100  Level FAA TRACON SMA TRACON (SMA)
04:42PM 39.4264 -74.8406 320° Northwest 242 278 9,100  Level FAA TRACON SMA TRACON (SMA)
04:43PM 39.4458 -74.8628 319° Northwest 243 280 9,100 -300 Level FAA TRACON SMA TRACON (SMA)
04:43PM 39.4603 -74.8797 318° Northwest 243 280 8,900 -600 Descending FAA TRACON SMA TRACON (SMA)
04:43PM 39.4700 -74.9047 297° West 232 267 8,700 -900 Descending FAA TRACON SMA TRACON (SMA)
04:44PM 39.4781 -74.9356 289° West 233 268 8,300 -1,080 Descending FAA TRACON SMA TRACON (SMA)
04:44PM 39.4842 -74.9586 289° West 235 270 8,000 -900 Descending FAA TRACON SMA TRACON (SMA)
04:44PM 39.5017 -74.9733 327° Northwest 235 270 7,700 -1,080 Descending FAA TRACON SMA TRACON (SMA)
04:45PM 39.5256 -74.9861 338° Northwest 236 272 7,300 -900 Descending FAA TRACON SMA TRACON (SMA)
04:45PM 39.5433 -74.9964 336° Northwest 231 266 7,100 -900 Descending FAA TRACON SMA TRACON (SMA)
04:45PM 39.5614 -75.0075 335° Northwest 231 266 6,700 -1,380 Descending FAA TRACON SMA TRACON (SMA)
04:46PM 39.5808 -75.0208 332° Northwest 228 262 6,200 -1,080 Descending FAA TRACON SMA TRACON (SMA)
04:46PM 39.5997 -75.0342 331° Northwest 224 258 6,000 -300 Descending FAA TRACON SMA TRACON (SMA)
04:46PM 39.6144 -75.0453 330° Northwest 223 257 6,000 -180 Level FAA TRACON SMA TRACON (SMA)
04:47PM 39.6336 -75.0592 331° Northwest 198 228 5,900 -780 Descending FAA TRACON SMA TRACON (SMA)
04:47PM 39.6481 -75.0700 330° Northwest 181 208 5,500 -1,200 Descending FAA TRACON SMA TRACON (SMA)
04:47PM 39.6608 -75.0797 330° Northwest 174 200 5,100 -1,500 Descending FAA TRACON SMA TRACON (SMA)
04:48PM 39.6758 -75.0939 324° Northwest 174 200 4,500 -1,500 Descending FAA TRACON SMA TRACON (SMA)
04:48PM 39.6867 -75.1067 318° Northwest 179 206 4,100 -1,200 Descending FAA TRACON SMA TRACON (SMA)
04:48PM 39.6906 -75.1236 287° West 176 203 3,700 -1,380 Descending FAA TRACON SMA TRACON (SMA)
04:49PM 39.6969 -75.1433 293° West 173 199 3,200 -900 Descending FAA TRACON SMA TRACON (SMA)
04:49PM 39.7131 -75.1550 331° Northwest 169 194 3,100 -300 Descending FAA TRACON SMA TRACON (SMA)
04:49PM 39.7269 -75.1578 351° North 181 208 3,000 -180 Descending FAA TRACON SMA TRACON (SMA)
04:50PM 39.7453 -75.1664 340° North 172 198 3,000  Level FAA TRACON SMA TRACON (SMA)